createdAt,value
2017-01-24T00:00:09.034Z,19.78
2017-01-24T00:01:09.047Z,19.69
2017-01-24T00:02:08.677Z,19.77
2017-01-24T00:03:08.704Z,19.77
2017-01-24T00:04:08.728Z,19.65
2017-01-24T00:05:08.757Z,19.71
2017-01-24T00:06:08.386Z,19.66
2017-01-24T00:07:08.809Z,19.68
2017-01-24T00:08:08.822Z,19.71
2017-01-24T00:09:08.861Z,19.66
2017-01-24T00:10:08.896Z,19.65
2017-01-24T00:11:09.309Z,19.73
2017-01-24T00:12:08.546Z,19.63
2017-01-24T00:13:08.955Z,19.61
2017-01-24T00:14:08.591Z,19.62
2017-01-24T00:15:09.016Z,19.61
2017-01-24T00:16:09.031Z,19.63
2017-01-24T00:17:09.461Z,19.65
2017-01-24T00:18:09.090Z,19.59
2017-01-24T00:19:09.510Z,19.59
2017-01-24T00:20:09.544Z,19.56
2017-01-24T00:21:09.176Z,19.62
2017-01-24T00:22:08.796Z,19.62
2017-01-24T00:23:09.221Z,19.61
2017-01-24T00:24:09.643Z,19.61
2017-01-24T00:25:09.268Z,19.5
2017-01-24T00:26:09.701Z,19.5
2017-01-24T00:27:09.325Z,19.5
2017-01-24T00:28:09.732Z,19.48
2017-01-24T00:29:08.976Z,19.51
2017-01-24T00:30:09.401Z,19.47
2017-01-24T00:31:09.028Z,19.51
2017-01-24T00:32:09.844Z,19.5
2017-01-24T00:33:09.475Z,19.51
2017-01-24T00:34:09.501Z,19.5
2017-01-24T00:35:09.143Z,19.51
2017-01-24T00:36:09.946Z,19.43
2017-01-24T00:37:09.991Z,19.47
2017-01-24T00:38:09.215Z,19.47
2017-01-24T00:39:09.633Z,19.44
2017-01-24T00:40:09.256Z,19.46
2017-01-24T00:41:09.678Z,19.44
2017-01-24T00:42:09.306Z,19.41
2017-01-24T00:43:10.125Z,19.4
2017-01-24T00:44:10.152Z,19.39
2017-01-24T00:45:09.387Z,19.43
2017-01-24T00:46:09.804Z,19.47
2017-01-24T00:47:10.228Z,19.46
2017-01-24T00:48:09.477Z,19.41
2017-01-24T00:49:09.887Z,19.41
2017-01-24T00:50:09.908Z,19.37
2017-01-24T00:51:10.332Z,19.39
2017-01-24T00:52:10.353Z,19.39
2017-01-24T00:53:10.406Z,19.41
2017-01-24T00:54:10.017Z,19.44
2017-01-24T00:55:10.435Z,19.37
2017-01-24T00:56:09.664Z,19.41
2017-01-24T00:57:10.489Z,19.31
2017-01-24T00:58:10.109Z,19.36
2017-01-24T00:59:10.130Z,19.41
2017-01-24T01:00:10.560Z,19.31
2017-01-24T01:01:10.579Z,19.26
2017-01-24T01:02:09.819Z,19.32
2017-01-24T01:03:10.235Z,19.32
2017-01-24T01:04:09.870Z,19.37
2017-01-24T01:05:10.293Z,19.28
2017-01-24T01:06:09.943Z,19.28
2017-01-24T01:07:09.951Z,19.29
2017-01-24T01:08:10.769Z,19.22
2017-01-24T01:09:10.825Z,19.31
2017-01-24T01:10:10.026Z,19.31
2017-01-24T01:11:10.051Z,19.29
2017-01-24T01:12:10.071Z,19.31
2017-01-24T01:13:10.500Z,19.25
2017-01-24T01:14:10.918Z,19.25
2017-01-24T01:15:10.149Z,19.25
2017-01-24T01:16:10.570Z,19.31
2017-01-24T01:17:10.602Z,19.29
2017-01-24T01:18:10.227Z,19.23
2017-01-24T01:19:10.647Z,19.18
2017-01-24T01:20:10.273Z,19.14
2017-01-24T01:21:10.305Z,19.18
2017-01-24T01:22:10.326Z,19.28
2017-01-24T01:23:10.356Z,19.21
2017-01-24T01:24:10.776Z,19.19
2017-01-24T01:25:10.796Z,19.16
2017-01-24T01:26:11.217Z,19.26
2017-01-24T01:27:10.458Z,19.14
2017-01-24T01:28:10.482Z,19.19
2017-01-24T01:29:10.913Z,19.18
2017-01-24T01:30:10.928Z,19.18
2017-01-24T01:31:10.548Z,19.16
2017-01-24T01:32:10.977Z,19.21
2017-01-24T01:33:11.011Z,19.21
2017-01-24T01:34:10.639Z,19.19
2017-01-24T01:35:11.449Z,19.19
2017-01-24T01:36:10.684Z,19.06
2017-01-24T01:37:11.501Z,19.19
2017-01-24T01:38:11.129Z,19.16
2017-01-24T01:39:11.154Z,19.14
2017-01-24T01:40:11.180Z,19.1
2017-01-24T01:41:11.608Z,19.11
2017-01-24T01:42:11.230Z,19.06
2017-01-24T01:43:10.865Z,19.06
2017-01-24T01:44:11.286Z,19.18
2017-01-24T01:45:10.916Z,19.14
2017-01-24T01:46:11.340Z,19.16
2017-01-24T01:47:10.965Z,19.13
2017-01-24T01:48:11.384Z,19.07
2017-01-24T01:49:11.810Z,19.13
2017-01-24T01:50:11.839Z,19.1
2017-01-24T01:51:11.463Z,19.11
2017-01-24T01:52:11.487Z,19.18
2017-01-24T01:53:11.136Z,19.07
2017-01-24T01:54:11.537Z,19.1
2017-01-24T01:55:11.168Z,19.08
2017-01-24T01:56:11.195Z,19.18
2017-01-24T01:57:12.016Z,19.11
2017-01-24T01:58:12.040Z,19.07
2017-01-24T01:59:12.065Z,19.11
2017-01-24T02:00:11.698Z,19.1
2017-01-24T02:01:11.723Z,19.11
2017-01-24T02:02:11.347Z,19.04
2017-01-24T02:03:12.163Z,19.11
2017-01-24T02:04:11.392Z,19.04
2017-01-24T02:05:12.206Z,19.06
2017-01-24T02:06:12.250Z,18.98
2017-01-24T02:07:11.866Z,19
2017-01-24T02:08:11.498Z,18.92
2017-01-24T02:09:11.527Z,19.06
2017-01-24T02:10:11.547Z,19
2017-01-24T02:11:11.965Z,19.04
2017-01-24T02:12:11.597Z,18.91
2017-01-24T02:13:12.022Z,19
2017-01-24T02:14:11.650Z,18.9
2017-01-24T02:15:11.674Z,18.99
2017-01-24T02:16:12.088Z,18.85
2017-01-24T02:17:12.123Z,19.02
2017-01-24T02:18:11.749Z,18.99
2017-01-24T02:19:12.169Z,18.91
2017-01-24T02:20:12.194Z,18.9
2017-01-24T02:21:12.226Z,18.95
2017-01-24T02:22:12.247Z,18.98
2017-01-24T02:23:12.664Z,18.94
2017-01-24T02:24:12.700Z,18.94
2017-01-24T02:25:11.925Z,18.98
2017-01-24T02:26:12.350Z,18.91
2017-01-24T02:27:12.375Z,18.91
2017-01-24T02:28:12.004Z,18.92
2017-01-24T02:29:12.028Z,18.92
2017-01-24T02:30:12.849Z,18.92
2017-01-24T02:31:12.469Z,18.91
2017-01-24T02:32:12.106Z,18.87
2017-01-24T02:33:12.530Z,18.88
2017-01-24T02:34:12.159Z,18.88
2017-01-24T02:35:12.174Z,18.92
2017-01-24T02:36:12.597Z,18.84
2017-01-24T02:37:12.647Z,18.87
2017-01-24T02:38:12.650Z,18.85
2017-01-24T02:39:13.067Z,18.8
2017-01-24T02:40:12.703Z,18.76
2017-01-24T02:41:13.128Z,18.84
2017-01-24T02:42:12.754Z,18.76
2017-01-24T02:43:13.198Z,18.78
2017-01-24T02:44:12.409Z,18.85
2017-01-24T02:45:12.432Z,18.85
2017-01-24T02:46:13.253Z,18.76
2017-01-24T02:47:12.876Z,18.81
2017-01-24T02:48:12.904Z,18.82
2017-01-24T02:49:12.932Z,18.84
2017-01-24T02:50:12.953Z,18.81
2017-01-24T02:51:12.979Z,18.8
2017-01-24T02:52:12.607Z,18.78
2017-01-24T02:53:12.633Z,18.82
2017-01-24T02:54:13.457Z,18.8
2017-01-24T02:55:13.477Z,18.85
2017-01-24T02:56:13.495Z,18.78
2017-01-24T02:57:12.731Z,18.75
2017-01-24T02:58:12.764Z,18.82
2017-01-24T02:59:13.181Z,18.8
2017-01-24T03:00:13.203Z,18.7
2017-01-24T03:01:13.627Z,18.8
2017-01-24T03:02:13.660Z,18.75
2017-01-24T03:03:13.681Z,18.8
2017-01-24T03:04:13.305Z,18.75
2017-01-24T03:05:13.337Z,18.7
2017-01-24T03:06:13.358Z,18.73
2017-01-24T03:07:13.379Z,18.8
2017-01-24T03:08:13.407Z,18.7
2017-01-24T03:09:13.833Z,18.73
2017-01-24T03:10:13.461Z,18.73
2017-01-24T03:11:13.487Z,18.72
2017-01-24T03:12:13.506Z,18.73
2017-01-24T03:13:13.135Z,18.78
2017-01-24T03:14:13.556Z,18.65
2017-01-24T03:15:13.584Z,18.73
2017-01-24T03:16:13.614Z,18.73
2017-01-24T03:17:14.035Z,18.66
2017-01-24T03:18:13.655Z,18.63
2017-01-24T03:19:14.080Z,18.67
2017-01-24T03:20:13.312Z,18.67
2017-01-24T03:21:13.337Z,18.69
2017-01-24T03:22:14.154Z,18.63
2017-01-24T03:23:13.382Z,18.65
2017-01-24T03:24:13.810Z,18.58
2017-01-24T03:25:13.836Z,18.66
2017-01-24T03:26:13.865Z,18.6
2017-01-24T03:27:14.285Z,18.66
2017-01-24T03:28:13.911Z,18.65
2017-01-24T03:29:13.539Z,18.58
2017-01-24T03:30:14.360Z,18.66
2017-01-24T03:31:13.984Z,18.62
2017-01-24T03:32:14.012Z,18.6
2017-01-24T03:33:14.434Z,18.58
2017-01-24T03:34:14.459Z,18.67
2017-01-24T03:35:13.687Z,18.63
2017-01-24T03:36:14.512Z,18.65
2017-01-24T03:37:13.741Z,18.6
2017-01-24T03:38:14.557Z,18.6
2017-01-24T03:39:13.785Z,18.62
2017-01-24T03:40:14.210Z,18.63
2017-01-24T03:41:14.236Z,18.6
2017-01-24T03:42:14.672Z,18.6
2017-01-24T03:43:14.288Z,18.62
2017-01-24T03:44:14.313Z,18.62
2017-01-24T03:45:14.338Z,18.66
2017-01-24T03:46:13.959Z,18.62
2017-01-24T03:47:14.392Z,18.58
2017-01-24T03:48:14.805Z,18.65
2017-01-24T03:49:14.438Z,18.62
2017-01-24T03:50:14.458Z,18.58
2017-01-24T03:51:14.092Z,18.48
2017-01-24T03:52:14.111Z,18.55
2017-01-24T03:53:14.541Z,18.6
2017-01-24T03:54:14.189Z,18.55
2017-01-24T03:55:14.189Z,18.47
2017-01-24T03:56:14.212Z,18.48
2017-01-24T03:57:15.035Z,18.5
2017-01-24T03:58:14.660Z,18.54
2017-01-24T03:59:14.676Z,18.47
2017-01-24T04:00:14.713Z,18.51
2017-01-24T04:01:14.734Z,18.5
2017-01-24T04:02:14.764Z,18.44
2017-01-24T04:03:14.787Z,18.54
2017-01-24T04:04:15.201Z,18.45
2017-01-24T04:05:15.233Z,18.47
2017-01-24T04:06:14.465Z,18.5
2017-01-24T04:07:14.895Z,18.51
2017-01-24T04:08:14.922Z,18.54
2017-01-24T04:09:15.333Z,18.48
2017-01-24T04:10:14.564Z,18.48
2017-01-24T04:11:14.590Z,18.5
2017-01-24T04:12:15.011Z,18.48
2017-01-24T04:13:15.443Z,18.45
2017-01-24T04:14:15.456Z,18.45
2017-01-24T04:15:14.689Z,18.44
2017-01-24T04:16:15.121Z,18.5
2017-01-24T04:17:15.143Z,18.51
2017-01-24T04:18:15.163Z,18.55
2017-01-24T04:19:15.192Z,18.51
2017-01-24T04:20:15.603Z,18.54
2017-01-24T04:21:15.638Z,18.57
2017-01-24T04:22:15.265Z,18.44
2017-01-24T04:23:14.894Z,18.41
2017-01-24T04:24:14.911Z,18.5
2017-01-24T04:25:14.940Z,18.41
2017-01-24T04:26:14.965Z,18.47
2017-01-24T04:27:15.386Z,18.42
2017-01-24T04:28:15.806Z,18.45
2017-01-24T04:29:15.440Z,18.44
2017-01-24T04:30:15.072Z,18.41
2017-01-24T04:31:15.093Z,18.44
2017-01-24T04:32:15.120Z,18.44
2017-01-24T04:33:15.542Z,18.5
2017-01-24T04:34:15.171Z,18.44
2017-01-24T04:35:15.588Z,18.44
2017-01-24T04:36:15.613Z,18.47
2017-01-24T04:37:15.240Z,18.37
2017-01-24T04:38:16.062Z,18.44
2017-01-24T04:39:15.290Z,18.42
2017-01-24T04:40:15.315Z,18.44
2017-01-24T04:41:15.736Z,18.44
2017-01-24T04:42:16.164Z,18.37
2017-01-24T04:43:16.182Z,18.42
2017-01-24T04:44:16.205Z,18.44
2017-01-24T04:45:15.831Z,18.39
2017-01-24T04:46:15.463Z,18.41
2017-01-24T04:47:15.892Z,18.41
2017-01-24T04:48:15.921Z,18.39
2017-01-24T04:49:15.534Z,18.36
2017-01-24T04:50:16.358Z,18.37
2017-01-24T04:51:16.388Z,18.39
2017-01-24T04:52:16.016Z,18.37
2017-01-24T04:53:15.668Z,18.39
2017-01-24T04:54:16.462Z,18.44
2017-01-24T04:55:15.694Z,18.33
2017-01-24T04:56:16.111Z,18.39
2017-01-24T04:57:15.744Z,18.39
2017-01-24T04:58:16.163Z,18.35
2017-01-24T04:59:16.580Z,18.32
2017-01-24T05:00:15.814Z,18.33
2017-01-24T05:01:16.234Z,18.37
2017-01-24T05:02:16.659Z,18.36
2017-01-24T05:03:16.700Z,18.41
2017-01-24T05:04:16.313Z,18.32
2017-01-24T05:05:16.734Z,18.32
2017-01-24T05:06:16.763Z,18.35
2017-01-24T05:07:16.387Z,18.29
2017-01-24T05:08:16.020Z,18.32
2017-01-24T05:09:16.441Z,18.37
2017-01-24T05:10:16.066Z,18.25
2017-01-24T05:11:16.487Z,18.27
2017-01-24T05:12:16.116Z,18.29
2017-01-24T05:13:16.144Z,18.35
2017-01-24T05:14:16.962Z,18.27
2017-01-24T05:15:16.189Z,18.26
2017-01-24T05:16:16.626Z,18.26
2017-01-24T05:17:16.639Z,18.26
2017-01-24T05:18:17.055Z,18.33
2017-01-24T05:19:16.292Z,18.23
2017-01-24T05:20:17.100Z,18.33
2017-01-24T05:21:17.138Z,18.29
2017-01-24T05:22:17.156Z,18.36
2017-01-24T05:23:16.383Z,18.29
2017-01-24T05:24:16.816Z,18.26
2017-01-24T05:25:16.836Z,18.33
2017-01-24T05:26:16.870Z,18.32
2017-01-24T05:27:16.885Z,18.36
2017-01-24T05:28:17.307Z,18.29
2017-01-24T05:29:16.943Z,18.33
2017-01-24T05:30:17.363Z,18.3
2017-01-24T05:31:16.988Z,18.39
2017-01-24T05:32:17.409Z,18.41
2017-01-24T05:33:16.643Z,18.45
2017-01-24T05:34:16.668Z,18.47
2017-01-24T05:35:17.092Z,18.42
2017-01-24T05:36:17.124Z,18.51
2017-01-24T05:37:17.125Z,18.44
2017-01-24T05:38:17.154Z,18.54
2017-01-24T05:39:17.579Z,18.57
2017-01-24T05:40:17.216Z,18.62
2017-01-24T05:41:16.839Z,18.65
2017-01-24T05:42:17.656Z,18.66
2017-01-24T05:43:16.898Z,18.66
2017-01-24T05:44:17.710Z,18.67
2017-01-24T05:45:17.339Z,18.75
2017-01-24T05:46:17.360Z,18.73
2017-01-24T05:47:17.385Z,18.72
2017-01-24T05:48:17.013Z,18.72
2017-01-24T05:49:17.045Z,18.76
2017-01-24T05:50:17.471Z,18.82
2017-01-24T05:51:17.888Z,18.73
2017-01-24T05:52:17.516Z,18.81
2017-01-24T05:53:17.145Z,18.85
2017-01-24T05:54:17.969Z,18.88
2017-01-24T05:55:17.195Z,18.88
2017-01-24T05:56:17.614Z,18.92
2017-01-24T05:57:17.244Z,18.85
2017-01-24T05:58:17.672Z,18.95
2017-01-24T05:59:18.073Z,19
2017-01-24T06:00:18.113Z,18.98
2017-01-24T06:01:18.131Z,19.08
2017-01-24T06:02:18.164Z,19
2017-01-24T06:03:18.176Z,19.08
2017-01-24T06:04:17.421Z,19.06
2017-01-24T06:05:18.241Z,19.16
2017-01-24T06:06:18.267Z,19.19
2017-01-24T06:07:17.891Z,19.19
2017-01-24T06:08:18.311Z,19.14
2017-01-24T06:09:17.933Z,19.21
2017-01-24T06:10:18.374Z,19.11
2017-01-24T06:11:18.378Z,19.19
2017-01-24T06:12:17.615Z,19.14
2017-01-24T06:13:18.047Z,19.19
2017-01-24T06:14:18.464Z,19.21
2017-01-24T06:15:17.697Z,19.18
2017-01-24T06:16:18.114Z,19.22
2017-01-24T06:17:18.146Z,19.23
2017-01-24T06:18:17.771Z,19.28
2017-01-24T06:19:18.591Z,19.32
2017-01-24T06:20:18.613Z,19.22
2017-01-24T06:21:18.234Z,19.22
2017-01-24T06:22:18.265Z,19.26
2017-01-24T06:23:18.287Z,19.33
2017-01-24T06:24:17.915Z,19.29
2017-01-24T06:25:18.736Z,19.37
2017-01-24T06:26:18.365Z,19.41
2017-01-24T06:27:17.994Z,19.4
2017-01-24T06:28:18.434Z,19.41
2017-01-24T06:29:18.838Z,19.47
2017-01-24T06:30:18.869Z,19.46
2017-01-24T06:31:18.528Z,19.46
2017-01-24T06:32:18.113Z,19.39
2017-01-24T06:33:18.153Z,19.44
2017-01-24T06:34:18.171Z,19.41
2017-01-24T06:35:18.599Z,19.48
2017-01-24T06:36:18.227Z,19.43
2017-01-24T06:37:18.649Z,19.47
2017-01-24T06:38:18.682Z,19.48
2017-01-24T06:39:18.301Z,19.47
2017-01-24T06:40:18.323Z,19.48
2017-01-24T06:41:18.351Z,19.58
2017-01-24T06:42:18.377Z,19.55
2017-01-24T06:43:18.400Z,19.51
2017-01-24T06:44:18.434Z,19.55
2017-01-24T06:45:18.454Z,19.48
2017-01-24T06:46:18.872Z,19.55
2017-01-24T06:47:19.297Z,19.47
2017-01-24T06:48:18.928Z,19.44
2017-01-24T06:49:18.558Z,19.5
2017-01-24T06:50:18.970Z,19.51
2017-01-24T06:51:18.999Z,19.51
2017-01-24T06:52:19.032Z,19.5
2017-01-24T06:53:19.049Z,19.54
2017-01-24T06:54:18.686Z,19.48
2017-01-24T06:55:19.102Z,19.54
2017-01-24T06:56:19.131Z,19.58
2017-01-24T06:57:19.555Z,19.65
2017-01-24T06:58:19.184Z,19.62
2017-01-24T06:59:19.205Z,19.61
2017-01-24T07:00:18.837Z,19.65
2017-01-24T07:01:19.255Z,19.66
2017-01-24T07:02:18.878Z,19.63
2017-01-24T07:03:19.306Z,19.65
2017-01-24T07:04:19.337Z,19.66
2017-01-24T07:05:19.757Z,19.62
2017-01-24T07:06:19.778Z,19.68
2017-01-24T07:07:19.403Z,19.68
2017-01-24T07:08:19.436Z,19.71
2017-01-24T07:09:19.456Z,19.66
2017-01-24T07:10:19.093Z,19.68
2017-01-24T07:11:19.114Z,19.69
2017-01-24T07:12:19.543Z,19.74
2017-01-24T07:13:19.954Z,19.77
2017-01-24T07:14:19.192Z,19.74
2017-01-24T07:15:19.612Z,19.76
2017-01-24T07:16:19.240Z,19.76
2017-01-24T07:17:19.663Z,19.78
2017-01-24T07:18:19.687Z,19.76
2017-01-24T07:19:19.327Z,19.74
2017-01-24T07:20:19.340Z,19.87
2017-01-24T07:21:19.767Z,19.84
2017-01-24T07:22:20.189Z,19.78
2017-01-24T07:23:20.210Z,19.87
2017-01-24T07:24:19.872Z,19.87
2017-01-24T07:25:19.871Z,19.84
2017-01-24T07:26:19.895Z,19.88
2017-01-24T07:27:19.520Z,19.86
2017-01-24T07:28:19.548Z,19.8
2017-01-24T07:29:19.966Z,19.86
2017-01-24T07:30:19.595Z,19.8
2017-01-24T07:31:19.632Z,19.84
2017-01-24T07:32:20.053Z,19.81
2017-01-24T07:33:20.473Z,19.8
2017-01-24T07:34:20.493Z,19.87
2017-01-24T07:35:19.721Z,19.81
2017-01-24T07:36:19.760Z,19.84
2017-01-24T07:37:20.179Z,19.81
2017-01-24T07:38:20.201Z,19.8
2017-01-24T07:39:19.834Z,19.8
2017-01-24T07:40:20.277Z,19.77
2017-01-24T07:41:20.682Z,19.81
2017-01-24T07:42:20.703Z,19.84
2017-01-24T07:43:20.335Z,19.8
2017-01-24T07:44:19.950Z,19.84
2017-01-24T07:45:19.987Z,19.74
2017-01-24T07:46:20.014Z,19.71
2017-01-24T07:47:20.034Z,19.8
2017-01-24T07:48:20.462Z,19.68
2017-01-24T07:49:20.876Z,19.73
2017-01-24T07:50:20.512Z,19.68
2017-01-24T07:51:20.941Z,19.69
2017-01-24T07:52:20.558Z,19.69
2017-01-24T07:53:20.582Z,19.65
2017-01-24T07:54:20.611Z,19.65
2017-01-24T07:55:20.637Z,19.69
2017-01-24T07:56:20.669Z,19.59
2017-01-24T07:57:20.293Z,19.61
2017-01-24T07:58:20.322Z,19.63
2017-01-24T07:59:20.739Z,19.62
2017-01-24T08:00:21.163Z,19.66
2017-01-24T08:01:20.793Z,19.62
2017-01-24T08:02:20.425Z,19.63
2017-01-24T08:03:20.445Z,19.58
2017-01-24T08:04:21.271Z,19.58
2017-01-24T08:05:20.900Z,19.51
2017-01-24T08:06:20.526Z,19.58
2017-01-24T08:07:20.949Z,19.59
2017-01-24T08:08:21.365Z,19.48
2017-01-24T08:09:20.601Z,19.48
2017-01-24T08:10:21.018Z,19.59
2017-01-24T08:11:20.659Z,19.48
2017-01-24T08:12:21.077Z,19.43
2017-01-24T08:13:21.116Z,19.51
2017-01-24T08:14:21.513Z,19.48
2017-01-24T08:15:20.755Z,19.51
2017-01-24T08:16:21.171Z,19.5
2017-01-24T08:17:21.596Z,19.51
2017-01-24T08:18:20.820Z,19.43
2017-01-24T08:19:20.853Z,19.48
2017-01-24T08:20:21.277Z,19.47
2017-01-24T08:21:20.906Z,19.51
2017-01-24T08:22:21.727Z,19.43
2017-01-24T08:23:20.957Z,19.43
2017-01-24T08:24:20.984Z,19.46
2017-01-24T08:25:21.410Z,19.43
2017-01-24T08:26:21.445Z,19.46
2017-01-24T08:27:21.855Z,19.44
2017-01-24T08:28:21.483Z,19.44
2017-01-24T08:29:21.903Z,19.43
2017-01-24T08:30:21.145Z,19.37
2017-01-24T08:31:21.561Z,19.44
2017-01-24T08:32:21.586Z,19.36
2017-01-24T08:33:21.611Z,19.33
2017-01-24T08:34:22.032Z,19.31
2017-01-24T08:35:22.057Z,19.33
2017-01-24T08:36:22.085Z,19.39
2017-01-24T08:37:21.715Z,19.31
2017-01-24T08:38:21.739Z,19.28
2017-01-24T08:39:21.371Z,19.13
2017-01-24T08:40:22.211Z,19.07
2017-01-24T08:41:21.416Z,18.92
2017-01-24T08:42:22.237Z,18.91
2017-01-24T08:43:22.287Z,18.94
2017-01-24T08:44:21.887Z,18.84
2017-01-24T08:45:21.523Z,18.5
2017-01-24T08:46:21.548Z,18.42
2017-01-24T08:47:21.974Z,18.33
2017-01-24T08:48:22.398Z,18.32
2017-01-24T08:49:21.623Z,18.27
2017-01-24T08:50:22.047Z,18.33
2017-01-24T08:51:22.460Z,18.42
2017-01-24T08:52:22.497Z,18.33
2017-01-24T08:53:21.717Z,18.41
2017-01-24T08:54:22.542Z,18.45
2017-01-24T08:55:22.567Z,18.41
2017-01-24T08:56:21.799Z,18.5
2017-01-24T08:57:22.222Z,18.48
2017-01-24T08:58:22.637Z,18.54
2017-01-24T08:59:22.678Z,18.57
2017-01-24T09:00:22.296Z,18.65
2017-01-24T09:01:22.735Z,18.6
2017-01-24T09:02:22.766Z,18.55
2017-01-24T09:03:22.372Z,18.6
2017-01-24T09:04:22.002Z,18.63
2017-01-24T09:05:22.421Z,18.65
2017-01-24T09:06:22.446Z,18.7
2017-01-24T09:07:22.867Z,18.69
2017-01-24T09:08:22.104Z,18.75
2017-01-24T09:09:22.524Z,18.75
2017-01-24T09:10:22.157Z,18.72
2017-01-24T09:11:22.174Z,18.7
2017-01-24T09:12:22.598Z,18.72
2017-01-24T09:13:22.619Z,18.8
2017-01-24T09:14:22.645Z,18.73
2017-01-24T09:15:23.073Z,18.75
2017-01-24T09:16:22.697Z,18.75
2017-01-24T09:17:23.126Z,18.78
2017-01-24T09:18:22.762Z,18.78
2017-01-24T09:19:22.379Z,18.8
2017-01-24T09:20:22.804Z,18.78
2017-01-24T09:21:22.829Z,18.75
2017-01-24T09:22:23.253Z,18.8
2017-01-24T09:23:22.874Z,18.78
2017-01-24T09:24:22.526Z,18.8
2017-01-24T09:25:22.524Z,18.75
2017-01-24T09:26:22.949Z,18.75
2017-01-24T09:27:22.578Z,18.75
2017-01-24T09:28:23.002Z,18.82
2017-01-24T09:29:23.423Z,18.78
2017-01-24T09:30:23.470Z,18.78
2017-01-24T09:31:23.473Z,18.76
2017-01-24T09:32:23.497Z,18.78
2017-01-24T09:33:22.730Z,18.73
2017-01-24T09:34:23.546Z,18.84
2017-01-24T09:35:23.176Z,18.76
2017-01-24T09:36:22.808Z,18.84
2017-01-24T09:37:23.772Z,18.75
2017-01-24T09:38:23.645Z,18.84
2017-01-24T09:39:23.683Z,18.78
2017-01-24T09:40:23.299Z,18.85
2017-01-24T09:41:23.328Z,18.82
2017-01-24T09:42:23.744Z,18.75
2017-01-24T09:43:23.774Z,18.8
2017-01-24T09:44:23.006Z,18.85
2017-01-24T09:45:23.830Z,18.82
2017-01-24T09:46:23.064Z,18.8
2017-01-24T09:47:23.872Z,18.78
2017-01-24T09:48:23.505Z,18.82
2017-01-24T09:49:23.147Z,18.78
2017-01-24T09:50:23.554Z,18.87
2017-01-24T09:51:23.579Z,18.8
2017-01-24T09:52:23.608Z,18.84
2017-01-24T09:53:24.029Z,18.84
2017-01-24T09:54:23.650Z,18.87
2017-01-24T09:55:23.686Z,18.82
2017-01-24T09:56:23.708Z,18.82
2017-01-24T09:57:24.124Z,18.81
2017-01-24T09:58:24.153Z,18.85
2017-01-24T09:59:24.177Z,18.76
2017-01-24T10:00:23.409Z,18.75
2017-01-24T10:01:23.835Z,18.81
2017-01-24T10:02:24.255Z,18.76
2017-01-24T10:03:24.279Z,18.78
2017-01-24T10:04:23.505Z,18.75
2017-01-24T10:05:23.534Z,18.8
2017-01-24T10:06:23.954Z,18.76
2017-01-24T10:07:24.379Z,18.72
2017-01-24T10:08:23.608Z,18.75
2017-01-24T10:09:24.036Z,18.75
2017-01-24T10:10:24.060Z,18.76
2017-01-24T10:11:23.694Z,18.82
2017-01-24T10:12:23.714Z,18.75
2017-01-24T10:13:23.752Z,18.76
2017-01-24T10:14:23.765Z,18.8
2017-01-24T10:15:24.209Z,18.76
2017-01-24T10:16:24.593Z,18.7
2017-01-24T10:17:24.635Z,18.78
2017-01-24T10:18:24.263Z,18.75
2017-01-24T10:19:24.284Z,18.78
2017-01-24T10:20:24.312Z,18.73
2017-01-24T10:21:24.343Z,18.7
2017-01-24T10:22:24.362Z,18.75
2017-01-24T10:23:25.051Z,18.73
2017-01-24T10:24:24.811Z,18.72
2017-01-24T10:25:24.840Z,18.7
2017-01-24T10:26:24.465Z,18.73
2017-01-24T10:27:24.482Z,18.72
2017-01-24T10:28:24.113Z,18.67
2017-01-24T10:29:24.535Z,18.66
2017-01-24T10:30:24.567Z,18.73
2017-01-24T10:31:24.193Z,18.72
2017-01-24T10:32:25.006Z,18.67
2017-01-24T10:33:24.638Z,18.7
2017-01-24T10:34:24.667Z,18.73
2017-01-24T10:35:25.084Z,18.69
2017-01-24T10:36:24.717Z,18.72
2017-01-24T10:37:24.741Z,18.66
2017-01-24T10:38:24.766Z,18.63
2017-01-24T10:39:24.786Z,18.67
2017-01-24T10:40:25.214Z,18.66
2017-01-24T10:41:24.449Z,18.72
2017-01-24T10:42:24.864Z,18.69
2017-01-24T10:43:24.502Z,18.66
2017-01-24T10:44:24.927Z,18.66
2017-01-24T10:45:24.939Z,18.65
2017-01-24T10:46:25.359Z,18.66
2017-01-24T10:47:25.397Z,18.65
2017-01-24T10:48:25.409Z,18.66
2017-01-24T10:49:25.434Z,18.66
2017-01-24T10:50:24.670Z,18.63
2017-01-24T10:51:25.093Z,18.66
2017-01-24T10:52:25.516Z,18.62
2017-01-24T10:53:24.749Z,18.58
2017-01-24T10:54:25.167Z,18.63
2017-01-24T10:55:25.591Z,18.69
2017-01-24T10:56:25.611Z,18.63
2017-01-24T10:57:25.239Z,18.72
2017-01-24T10:58:24.896Z,18.58
2017-01-24T10:59:25.301Z,18.63
2017-01-24T11:00:25.318Z,18.57
2017-01-24T11:01:25.346Z,18.58
2017-01-24T11:02:25.785Z,18.62
2017-01-24T11:03:25.817Z,18.65
2017-01-24T11:04:25.417Z,18.62
2017-01-24T11:05:25.843Z,18.62
2017-01-24T11:06:25.475Z,18.62
2017-01-24T11:07:25.495Z,18.62
2017-01-24T11:08:25.124Z,18.63
2017-01-24T11:09:25.553Z,18.62
2017-01-24T11:10:25.986Z,18.62
2017-01-24T11:11:25.986Z,18.62
2017-01-24T11:12:26.019Z,18.62
2017-01-24T11:13:25.259Z,18.72
2017-01-24T11:14:25.680Z,18.65
2017-01-24T11:15:25.297Z,18.6
2017-01-24T11:16:26.127Z,18.69
2017-01-24T11:17:25.751Z,18.69
2017-01-24T11:18:26.164Z,18.63
2017-01-24T11:19:26.211Z,18.63
2017-01-24T11:20:26.224Z,18.63
2017-01-24T11:21:26.246Z,18.62
2017-01-24T11:22:26.278Z,18.65
2017-01-24T11:23:25.901Z,18.65
2017-01-24T11:24:26.339Z,18.62
2017-01-24T11:25:25.982Z,18.62
2017-01-24T11:26:26.368Z,18.62
2017-01-24T11:27:26.426Z,18.66
2017-01-24T11:28:26.030Z,18.66
2017-01-24T11:29:26.443Z,18.63
2017-01-24T11:30:26.476Z,18.67
2017-01-24T11:31:26.128Z,18.58
2017-01-24T11:32:25.725Z,18.63
2017-01-24T11:33:26.151Z,18.65
2017-01-24T11:34:26.578Z,18.67
2017-01-24T11:35:26.599Z,18.62
2017-01-24T11:36:25.832Z,18.63
2017-01-24T11:37:26.649Z,18.55
2017-01-24T11:38:26.673Z,18.58
2017-01-24T11:39:26.303Z,18.62
2017-01-24T11:40:26.326Z,18.62
2017-01-24T11:41:26.743Z,18.6
2017-01-24T11:42:25.988Z,18.6
2017-01-24T11:43:26.001Z,18.62
2017-01-24T11:44:26.434Z,18.6
2017-01-24T11:45:26.451Z,18.58
2017-01-24T11:46:26.480Z,18.62
2017-01-24T11:47:26.897Z,18.62
2017-01-24T11:48:26.948Z,18.62
2017-01-24T11:49:26.549Z,18.65
2017-01-24T11:50:26.579Z,18.57
2017-01-24T11:51:27.002Z,18.58
2017-01-24T11:52:26.626Z,18.63
2017-01-24T11:53:27.048Z,18.54
2017-01-24T11:54:26.676Z,18.58
2017-01-24T11:55:26.705Z,18.69
2017-01-24T11:56:27.126Z,18.62
2017-01-24T11:57:26.751Z,18.62
2017-01-24T11:58:26.771Z,18.63
2017-01-24T11:59:26.795Z,18.63
2017-01-24T12:00:26.832Z,18.63
2017-01-24T12:01:27.249Z,18.65
2017-01-24T12:02:26.883Z,18.52
2017-01-24T12:03:26.907Z,18.62
2017-01-24T12:04:26.933Z,18.58
2017-01-24T12:05:26.948Z,18.65
2017-01-24T12:06:26.985Z,18.58
2017-01-24T12:07:26.606Z,18.57
2017-01-24T12:08:26.639Z,18.6
2017-01-24T12:09:27.058Z,18.62
2017-01-24T12:10:27.480Z,18.66
2017-01-24T12:11:27.509Z,18.6
2017-01-24T12:12:26.737Z,18.66
2017-01-24T12:13:27.157Z,18.62
2017-01-24T12:14:27.211Z,18.57
2017-01-24T12:15:27.216Z,18.58
2017-01-24T12:16:26.836Z,18.62
2017-01-24T12:17:27.265Z,18.6
2017-01-24T12:18:27.290Z,18.62
2017-01-24T12:19:27.312Z,18.63
2017-01-24T12:20:27.335Z,18.52
2017-01-24T12:21:27.355Z,18.51
2017-01-24T12:22:27.781Z,18.54
2017-01-24T12:23:27.405Z,18.6
2017-01-24T12:24:27.037Z,18.58
2017-01-24T12:25:27.858Z,18.57
2017-01-24T12:26:27.487Z,18.58
2017-01-24T12:27:27.118Z,18.57
2017-01-24T12:28:27.560Z,18.52
2017-01-24T12:29:27.565Z,18.63
2017-01-24T12:30:27.589Z,18.63
2017-01-24T12:31:28.007Z,18.65
2017-01-24T12:32:28.027Z,18.6
2017-01-24T12:33:28.057Z,18.65
2017-01-24T12:34:27.680Z,18.6
2017-01-24T12:35:27.337Z,18.6
2017-01-24T12:36:27.734Z,18.66
2017-01-24T12:37:27.360Z,18.57
2017-01-24T12:38:27.387Z,18.57
2017-01-24T12:39:27.808Z,18.63
2017-01-24T12:40:27.437Z,18.62
2017-01-24T12:41:28.258Z,18.62
2017-01-24T12:42:27.482Z,18.6
2017-01-24T12:43:28.311Z,18.58
2017-01-24T12:44:27.543Z,18.51
2017-01-24T12:45:27.962Z,18.57
2017-01-24T12:46:27.989Z,18.55
2017-01-24T12:47:28.014Z,18.5
2017-01-24T12:48:28.039Z,18.51
2017-01-24T12:49:27.663Z,18.6
2017-01-24T12:50:27.692Z,18.58
2017-01-24T12:51:28.109Z,18.57
2017-01-24T12:52:28.534Z,18.45
2017-01-24T12:53:28.574Z,18.65
2017-01-24T12:54:28.192Z,18.54
2017-01-24T12:55:27.818Z,18.48